sensor_id;sensor_type;location;lat;lon;timestamp;P1;durP1;ratioP1;P2;durP2;ratioP2
62572;SDS011;48626;51.678;5.806;2023-06-14T00:01:50;8.15;;;4.72;;
62572;SDS011;48626;51.678;5.806;2023-06-14T00:04:16;6.82;;;4.53;;
62572;SDS011;48626;51.678;5.806;2023-06-14T00:06:42;9.57;;;4.32;;
62572;SDS011;48626;51.678;5.806;2023-06-14T00:09:10;8.02;;;4.60;;
62572;SDS011;48626;51.678;5.806;2023-06-14T00:11:37;11.88;;;4.60;;
62572;SDS011;48626;51.678;5.806;2023-06-14T00:14:04;19.05;;;5.00;;
62572;SDS011;48626;51.678;5.806;2023-06-14T00:16:30;6.82;;;3.90;;
62572;SDS011;48626;51.678;5.806;2023-06-14T00:18:58;6.47;;;4.28;;
62572;SDS011;48626;51.678;5.806;2023-06-14T00:21:24;9.48;;;4.50;;
62572;SDS011;48626;51.678;5.806;2023-06-14T00:23:49;8.13;;;4.55;;
62572;SDS011;48626;51.678;5.806;2023-06-14T00:26:15;6.38;;;4.10;;
62572;SDS011;48626;51.678;5.806;2023-06-14T00:28:41;14.98;;;4.70;;
62572;SDS011;48626;51.678;5.806;2023-06-14T00:31:06;7.00;;;4.30;;
62572;SDS011;48626;51.678;5.806;2023-06-14T00:33:32;8.93;;;4.20;;
62572;SDS011;48626;51.678;5.806;2023-06-14T00:35:58;11.18;;;4.25;;
62572;SDS011;48626;51.678;5.806;2023-06-14T00:38:24;8.80;;;4.63;;
62572;SDS011;48626;51.678;5.806;2023-06-14T00:40:49;10.65;;;4.18;;
62572;SDS011;48626;51.678;5.806;2023-06-14T00:43:15;9.05;;;4.43;;
62572;SDS011;48626;51.678;5.806;2023-06-14T00:45:41;8.57;;;4.07;;
62572;SDS011;48626;51.678;5.806;2023-06-14T00:48:07;6.80;;;4.22;;
62572;SDS011;48626;51.678;5.806;2023-06-14T00:50:34;7.22;;;4.00;;
62572;SDS011;48626;51.678;5.806;2023-06-14T00:53:01;8.10;;;3.85;;
62572;SDS011;48626;51.678;5.806;2023-06-14T00:55:27;8.70;;;4.40;;
62572;SDS011;48626;51.678;5.806;2023-06-14T00:57:54;6.65;;;4.00;;
62572;SDS011;48626;51.678;5.806;2023-06-14T01:00:20;6.80;;;4.25;;
62572;SDS011;48626;51.678;5.806;2023-06-14T01:02:47;5.78;;;4.40;;
62572;SDS011;48626;51.678;5.806;2023-06-14T01:05:14;7.40;;;4.25;;
62572;SDS011;48626;51.678;5.806;2023-06-14T01:15:47;6.68;;;3.80;;
62572;SDS011;48626;51.678;5.806;2023-06-14T01:18:13;10.88;;;3.97;;
62572;SDS011;48626;51.678;5.806;2023-06-14T01:20:45;9.93;;;4.32;;
62572;SDS011;48626;51.678;5.806;2023-06-14T01:23:16;9.65;;;3.97;;
62572;SDS011;48626;51.678;5.806;2023-06-14T01:25:42;17.50;;;4.60;;
62572;SDS011;48626;51.678;5.806;2023-06-14T01:28:09;8.50;;;4.20;;
62572;SDS011;48626;51.678;5.806;2023-06-14T01:30:37;9.82;;;4.05;;
62572;SDS011;48626;51.678;5.806;2023-06-14T01:33:16;11.70;;;3.92;;
62572;SDS011;48626;51.678;5.806;2023-06-14T01:35:45;11.05;;;3.85;;
62572;SDS011;48626;51.678;5.806;2023-06-14T01:38:13;5.65;;;3.65;;
62572;SDS011;48626;51.678;5.806;2023-06-14T01:40:43;6.18;;;3.80;;
62572;SDS011;48626;51.678;5.806;2023-06-14T01:43:10;6.65;;;3.78;;
62572;SDS011;48626;51.678;5.806;2023-06-14T01:45:40;8.32;;;3.80;;
62572;SDS011;48626;51.678;5.806;2023-06-14T01:48:07;11.25;;;4.38;;
62572;SDS011;48626;51.678;5.806;2023-06-14T01:50:33;8.27;;;3.90;;
62572;SDS011;48626;51.678;5.806;2023-06-14T01:52:59;7.30;;;3.90;;
62572;SDS011;48626;51.678;5.806;2023-06-14T01:55:25;9.95;;;4.05;;
62572;SDS011;48626;51.678;5.806;2023-06-14T01:57:51;10.57;;;4.10;;
62572;SDS011;48626;51.678;5.806;2023-06-14T02:00:18;8.50;;;4.10;;
62572;SDS011;48626;51.678;5.806;2023-06-14T02:02:44;10.68;;;4.20;;
62572;SDS011;48626;51.678;5.806;2023-06-14T02:05:11;9.75;;;3.90;;
62572;SDS011;48626;51.678;5.806;2023-06-14T02:07:36;5.05;;;3.25;;
62572;SDS011;48626;51.678;5.806;2023-06-14T02:10:03;11.80;;;3.70;;
62572;SDS011;48626;51.678;5.806;2023-06-14T02:12:30;7.43;;;3.75;;
62572;SDS011;48626;51.678;5.806;2023-06-14T02:14:55;12.32;;;3.50;;
62572;SDS011;48626;51.678;5.806;2023-06-14T02:17:22;10.40;;;3.72;;
62572;SDS011;48626;51.678;5.806;2023-06-14T02:19:47;9.73;;;3.58;;
62572;SDS011;48626;51.678;5.806;2023-06-14T02:22:14;6.32;;;3.70;;
62572;SDS011;48626;51.678;5.806;2023-06-14T02:24:40;6.63;;;3.53;;
62572;SDS011;48626;51.678;5.806;2023-06-14T02:27:07;12.05;;;3.75;;
62572;SDS011;48626;51.678;5.806;2023-06-14T02:29:35;11.38;;;4.10;;
62572;SDS011;48626;51.678;5.806;2023-06-14T02:32:01;8.00;;;4.15;;
62572;SDS011;48626;51.678;5.806;2023-06-14T02:34:27;7.65;;;4.00;;
62572;SDS011;48626;51.678;5.806;2023-06-14T02:36:53;8.45;;;3.83;;
62572;SDS011;48626;51.678;5.806;2023-06-14T02:39:20;8.45;;;3.63;;
62572;SDS011;48626;51.678;5.806;2023-06-14T02:41:48;7.90;;;4.05;;
62572;SDS011;48626;51.678;5.806;2023-06-14T02:44:15;15.82;;;3.97;;
62572;SDS011;48626;51.678;5.806;2023-06-14T02:46:43;10.60;;;4.05;;
62572;SDS011;48626;51.678;5.806;2023-06-14T02:49:09;6.72;;;4.07;;
62572;SDS011;48626;51.678;5.806;2023-06-14T02:51:35;6.93;;;4.10;;
62572;SDS011;48626;51.678;5.806;2023-06-14T02:54:01;13.25;;;3.78;;
62572;SDS011;48626;51.678;5.806;2023-06-14T02:56:26;6.95;;;3.75;;
62572;SDS011;48626;51.678;5.806;2023-06-14T02:58:52;6.95;;;3.60;;
62572;SDS011;48626;51.678;5.806;2023-06-14T03:01:18;11.43;;;3.63;;
62572;SDS011;48626;51.678;5.806;2023-06-14T03:03:45;8.85;;;3.80;;
62572;SDS011;48626;51.678;5.806;2023-06-14T03:06:11;7.97;;;3.88;;
62572;SDS011;48626;51.678;5.806;2023-06-14T03:08:39;7.15;;;3.70;;
62572;SDS011;48626;51.678;5.806;2023-06-14T03:11:06;7.10;;;3.50;;
62572;SDS011;48626;51.678;5.806;2023-06-14T03:13:36;8.75;;;4.00;;
62572;SDS011;48626;51.678;5.806;2023-06-14T03:16:02;9.35;;;3.92;;
62572;SDS011;48626;51.678;5.806;2023-06-14T03:18:31;10.82;;;4.10;;
62572;SDS011;48626;51.678;5.806;2023-06-14T03:21:00;6.30;;;3.60;;
62572;SDS011;48626;51.678;5.806;2023-06-14T03:23:26;10.90;;;3.90;;
62572;SDS011;48626;51.678;5.806;2023-06-14T03:25:52;7.40;;;3.80;;
62572;SDS011;48626;51.678;5.806;2023-06-14T03:28:18;5.57;;;3.72;;
62572;SDS011;48626;51.678;5.806;2023-06-14T03:30:44;8.27;;;3.78;;
62572;SDS011;48626;51.678;5.806;2023-06-14T03:33:09;7.57;;;3.80;;
62572;SDS011;48626;51.678;5.806;2023-06-14T03:35:35;7.45;;;3.72;;
62572;SDS011;48626;51.678;5.806;2023-06-14T03:38:01;5.93;;;3.55;;
62572;SDS011;48626;51.678;5.806;2023-06-14T03:40:28;8.63;;;3.83;;
62572;SDS011;48626;51.678;5.806;2023-06-14T03:42:54;11.43;;;4.10;;
62572;SDS011;48626;51.678;5.806;2023-06-14T03:45:20;9.65;;;3.40;;
62572;SDS011;48626;51.678;5.806;2023-06-14T03:47:46;7.65;;;3.85;;
62572;SDS011;48626;51.678;5.806;2023-06-14T03:50:12;9.90;;;4.40;;
62572;SDS011;48626;51.678;5.806;2023-06-14T03:52:38;6.82;;;3.70;;
62572;SDS011;48626;51.678;5.806;2023-06-14T03:55:04;7.75;;;3.50;;
62572;SDS011;48626;51.678;5.806;2023-06-14T03:57:30;6.72;;;3.97;;
62572;SDS011;48626;51.678;5.806;2023-06-14T03:59:56;6.80;;;3.63;;
62572;SDS011;48626;51.678;5.806;2023-06-14T04:02:22;9.68;;;3.95;;
62572;SDS011;48626;51.678;5.806;2023-06-14T04:04:48;9.75;;;3.92;;
62572;SDS011;48626;51.678;5.806;2023-06-14T04:07:14;11.18;;;3.70;;
62572;SDS011;48626;51.678;5.806;2023-06-14T04:09:44;13.25;;;4.00;;
62572;SDS011;48626;51.678;5.806;2023-06-14T04:12:10;7.93;;;3.60;;
62572;SDS011;48626;51.678;5.806;2023-06-14T04:14:39;10.15;;;3.83;;
62572;SDS011;48626;51.678;5.806;2023-06-14T04:17:05;9.93;;;3.50;;
62572;SDS011;48626;51.678;5.806;2023-06-14T04:19:31;8.40;;;3.70;;
62572;SDS011;48626;51.678;5.806;2023-06-14T04:21:57;6.30;;;3.60;;
62572;SDS011;48626;51.678;5.806;2023-06-14T04:24:26;9.90;;;3.60;;
62572;SDS011;48626;51.678;5.806;2023-06-14T04:26:57;8.00;;;3.70;;
62572;SDS011;48626;51.678;5.806;2023-06-14T04:29:24;10.90;;;3.55;;
62572;SDS011;48626;51.678;5.806;2023-06-14T04:31:51;9.20;;;3.47;;
62572;SDS011;48626;51.678;5.806;2023-06-14T04:34:19;9.95;;;4.00;;
62572;SDS011;48626;51.678;5.806;2023-06-14T04:36:46;9.43;;;3.88;;
62572;SDS011;48626;51.678;5.806;2023-06-14T04:39:18;12.38;;;3.72;;
62572;SDS011;48626;51.678;5.806;2023-06-14T04:41:44;9.55;;;3.90;;
62572;SDS011;48626;51.678;5.806;2023-06-14T04:44:10;7.40;;;3.78;;
62572;SDS011;48626;51.678;5.806;2023-06-14T04:46:37;7.63;;;3.47;;
62572;SDS011;48626;51.678;5.806;2023-06-14T04:49:11;7.20;;;3.53;;
62572;SDS011;48626;51.678;5.806;2023-06-14T04:51:49;9.75;;;3.80;;
62572;SDS011;48626;51.678;5.806;2023-06-14T04:54:22;9.70;;;3.55;;
62572;SDS011;48626;51.678;5.806;2023-06-14T04:56:50;6.20;;;3.60;;
62572;SDS011;48626;51.678;5.806;2023-06-14T04:59:16;10.15;;;3.85;;
62572;SDS011;48626;51.678;5.806;2023-06-14T05:01:42;10.07;;;4.07;;
62572;SDS011;48626;51.678;5.806;2023-06-14T05:04:12;6.88;;;3.53;;
62572;SDS011;48626;51.678;5.806;2023-06-14T05:06:39;8.68;;;3.78;;
62572;SDS011;48626;51.678;5.806;2023-06-14T05:09:05;6.70;;;3.75;;
62572;SDS011;48626;51.678;5.806;2023-06-14T05:11:31;10.35;;;3.83;;
62572;SDS011;48626;51.678;5.806;2023-06-14T05:13:57;8.63;;;3.90;;
62572;SDS011;48626;51.678;5.806;2023-06-14T05:16:23;10.38;;;3.72;;
62572;SDS011;48626;51.678;5.806;2023-06-14T05:18:50;12.85;;;4.00;;
62572;SDS011;48626;51.678;5.806;2023-06-14T05:21:17;10.90;;;3.80;;
62572;SDS011;48626;51.678;5.806;2023-06-14T05:23:44;8.73;;;3.55;;
62572;SDS011;48626;51.678;5.806;2023-06-14T05:26:10;6.60;;;3.55;;
62572;SDS011;48626;51.678;5.806;2023-06-14T05:28:36;9.10;;;3.40;;
62572;SDS011;48626;51.678;5.806;2023-06-14T05:31:01;14.43;;;3.78;;
62572;SDS011;48626;51.678;5.806;2023-06-14T05:33:27;8.35;;;3.60;;
62572;SDS011;48626;51.678;5.806;2023-06-14T05:35:53;9.43;;;4.00;;
62572;SDS011;48626;51.678;5.806;2023-06-14T05:38:19;8.73;;;3.63;;
62572;SDS011;48626;51.678;5.806;2023-06-14T05:40:44;9.45;;;3.53;;
62572;SDS011;48626;51.678;5.806;2023-06-14T05:43:10;11.55;;;3.70;;
62572;SDS011;48626;51.678;5.806;2023-06-14T05:45:36;5.93;;;3.30;;
62572;SDS011;48626;51.678;5.806;2023-06-14T05:48:01;9.15;;;3.58;;
62572;SDS011;48626;51.678;5.806;2023-06-14T05:50:27;11.48;;;3.60;;
62572;SDS011;48626;51.678;5.806;2023-06-14T05:52:55;8.90;;;3.65;;
62572;SDS011;48626;51.678;5.806;2023-06-14T05:55:21;10.38;;;3.63;;
62572;SDS011;48626;51.678;5.806;2023-06-14T05:57:47;10.35;;;3.95;;
62572;SDS011;48626;51.678;5.806;2023-06-14T06:00:13;8.95;;;3.50;;
62572;SDS011;48626;51.678;5.806;2023-06-14T06:02:41;11.90;;;3.38;;
62572;SDS011;48626;51.678;5.806;2023-06-14T06:05:11;7.20;;;3.50;;
62572;SDS011;48626;51.678;5.806;2023-06-14T06:07:37;8.38;;;3.38;;
62572;SDS011;48626;51.678;5.806;2023-06-14T06:10:09;9.73;;;3.72;;
62572;SDS011;48626;51.678;5.806;2023-06-14T06:12:35;15.60;;;3.78;;
62572;SDS011;48626;51.678;5.806;2023-06-14T06:15:01;9.38;;;3.70;;
62572;SDS011;48626;51.678;5.806;2023-06-14T06:17:27;6.93;;;3.50;;
62572;SDS011;48626;51.678;5.806;2023-06-14T06:19:53;11.73;;;3.75;;
62572;SDS011;48626;51.678;5.806;2023-06-14T06:22:19;6.60;;;3.40;;
62572;SDS011;48626;51.678;5.806;2023-06-14T06:24:45;19.00;;;3.85;;
62572;SDS011;48626;51.678;5.806;2023-06-14T06:27:11;6.80;;;3.65;;
62572;SDS011;48626;51.678;5.806;2023-06-14T06:29:37;17.00;;;3.50;;
62572;SDS011;48626;51.678;5.806;2023-06-14T06:32:03;12.88;;;4.00;;
62572;SDS011;48626;51.678;5.806;2023-06-14T06:34:29;10.30;;;3.67;;
62572;SDS011;48626;51.678;5.806;2023-06-14T06:36:55;18.30;;;4.50;;
62572;SDS011;48626;51.678;5.806;2023-06-14T06:39:21;8.82;;;3.40;;
62572;SDS011;48626;51.678;5.806;2023-06-14T06:41:46;10.85;;;3.60;;
62572;SDS011;48626;51.678;5.806;2023-06-14T06:44:12;8.98;;;3.67;;
62572;SDS011;48626;51.678;5.806;2023-06-14T06:46:38;6.72;;;3.50;;
62572;SDS011;48626;51.678;5.806;2023-06-14T06:49:08;9.10;;;3.33;;
62572;SDS011;48626;51.678;5.806;2023-06-14T06:51:34;7.57;;;3.58;;
62572;SDS011;48626;51.678;5.806;2023-06-14T06:54:01;8.25;;;3.55;;
62572;SDS011;48626;51.678;5.806;2023-06-14T06:56:28;7.25;;;3.25;;
62572;SDS011;48626;51.678;5.806;2023-06-14T06:58:53;7.57;;;3.85;;
62572;SDS011;48626;51.678;5.806;2023-06-14T07:01:19;11.07;;;4.07;;
62572;SDS011;48626;51.678;5.806;2023-06-14T07:03:45;13.60;;;4.30;;
62572;SDS011;48626;51.678;5.806;2023-06-14T07:06:11;15.60;;;4.72;;
62572;SDS011;48626;51.678;5.806;2023-06-14T07:08:37;11.23;;;3.83;;
62572;SDS011;48626;51.678;5.806;2023-06-14T07:11:04;9.40;;;3.70;;
62572;SDS011;48626;51.678;5.806;2023-06-14T07:13:30;8.13;;;3.63;;
62572;SDS011;48626;51.678;5.806;2023-06-14T07:15:59;17.25;;;3.83;;
62572;SDS011;48626;51.678;5.806;2023-06-14T07:18:25;16.35;;;3.90;;
62572;SDS011;48626;51.678;5.806;2023-06-14T07:20:52;16.75;;;4.60;;
62572;SDS011;48626;51.678;5.806;2023-06-14T07:23:19;17.98;;;4.35;;
62572;SDS011;48626;51.678;5.806;2023-06-14T07:25:45;22.75;;;5.25;;
62572;SDS011;48626;51.678;5.806;2023-06-14T07:28:10;14.25;;;3.40;;
62572;SDS011;48626;51.678;5.806;2023-06-14T07:30:36;9.27;;;3.58;;
62572;SDS011;48626;51.678;5.806;2023-06-14T07:33:02;7.50;;;3.45;;
62572;SDS011;48626;51.678;5.806;2023-06-14T07:35:28;8.30;;;3.75;;
62572;SDS011;48626;51.678;5.806;2023-06-14T07:37:53;19.73;;;4.22;;
62572;SDS011;48626;51.678;5.806;2023-06-14T07:40:19;8.75;;;3.08;;
62572;SDS011;48626;51.678;5.806;2023-06-14T07:42:45;8.43;;;3.00;;
62572;SDS011;48626;51.678;5.806;2023-06-14T07:45:11;5.63;;;3.17;;
62572;SDS011;48626;51.678;5.806;2023-06-14T07:47:38;8.48;;;2.90;;
62572;SDS011;48626;51.678;5.806;2023-06-14T07:50:04;5.47;;;2.80;;
62572;SDS011;48626;51.678;5.806;2023-06-14T07:52:30;5.43;;;3.03;;
62572;SDS011;48626;51.678;5.806;2023-06-14T07:54:56;7.50;;;2.92;;
62572;SDS011;48626;51.678;5.806;2023-06-14T07:57:22;5.50;;;2.97;;
62572;SDS011;48626;51.678;5.806;2023-06-14T07:59:47;6.32;;;2.55;;
62572;SDS011;48626;51.678;5.806;2023-06-14T08:02:13;5.22;;;2.55;;
62572;SDS011;48626;51.678;5.806;2023-06-14T08:04:39;7.28;;;2.80;;
62572;SDS011;48626;51.678;5.806;2023-06-14T08:07:05;10.73;;;2.45;;
62572;SDS011;48626;51.678;5.806;2023-06-14T08:09:32;6.45;;;3.00;;
62572;SDS011;48626;51.678;5.806;2023-06-14T08:11:57;12.48;;;3.15;;
62572;SDS011;48626;51.678;5.806;2023-06-14T08:14:23;15.60;;;3.95;;
62572;SDS011;48626;51.678;5.806;2023-06-14T08:16:49;15.95;;;4.07;;
62572;SDS011;48626;51.678;5.806;2023-06-14T08:19:14;13.95;;;4.20;;
62572;SDS011;48626;51.678;5.806;2023-06-14T08:21:41;6.07;;;2.30;;
62572;SDS011;48626;51.678;5.806;2023-06-14T08:24:08;10.68;;;2.42;;
62572;SDS011;48626;51.678;5.806;2023-06-14T08:26:37;5.10;;;2.35;;
62572;SDS011;48626;51.678;5.806;2023-06-14T08:29:04;8.45;;;2.85;;
62572;SDS011;48626;51.678;5.806;2023-06-14T08:31:32;9.25;;;2.38;;
62572;SDS011;48626;51.678;5.806;2023-06-14T08:33:58;14.05;;;3.63;;
62572;SDS011;48626;51.678;5.806;2023-06-14T08:36:23;25.48;;;3.53;;
62572;SDS011;48626;51.678;5.806;2023-06-14T08:38:49;3.42;;;2.10;;
62572;SDS011;48626;51.678;5.806;2023-06-14T08:41:17;8.55;;;2.33;;
62572;SDS011;48626;51.678;5.806;2023-06-14T08:43:47;9.75;;;2.40;;
62572;SDS011;48626;51.678;5.806;2023-06-14T08:46:13;3.42;;;2.08;;
62572;SDS011;48626;51.678;5.806;2023-06-14T08:48:45;5.78;;;2.33;;
62572;SDS011;48626;51.678;5.806;2023-06-14T08:51:16;2.80;;;1.90;;
62572;SDS011;48626;51.678;5.806;2023-06-14T08:53:44;2.92;;;2.20;;
62572;SDS011;48626;51.678;5.806;2023-06-14T08:56:10;8.70;;;2.58;;
62572;SDS011;48626;51.678;5.806;2023-06-14T08:58:41;8.40;;;2.60;;
62572;SDS011;48626;51.678;5.806;2023-06-14T09:01:10;14.15;;;2.80;;
62572;SDS011;48626;51.678;5.806;2023-06-14T09:03:41;12.88;;;2.92;;
62572;SDS011;48626;51.678;5.806;2023-06-14T09:06:08;20.42;;;3.70;;
62572;SDS011;48626;51.678;5.806;2023-06-14T09:08:45;7.07;;;2.30;;
62572;SDS011;48626;51.678;5.806;2023-06-14T09:11:12;6.60;;;2.40;;
62572;SDS011;48626;51.678;5.806;2023-06-14T09:13:39;12.15;;;3.30;;
62572;SDS011;48626;51.678;5.806;2023-06-14T09:16:06;16.52;;;3.40;;
62572;SDS011;48626;51.678;5.806;2023-06-14T09:21:02;10.90;;;2.75;;
62572;SDS011;48626;51.678;5.806;2023-06-14T09:23:28;10.25;;;2.75;;
62572;SDS011;48626;51.678;5.806;2023-06-14T09:25:53;6.72;;;2.40;;
62572;SDS011;48626;51.678;5.806;2023-06-14T09:28:19;20.42;;;3.80;;
62572;SDS011;48626;51.678;5.806;2023-06-14T09:30:47;10.90;;;2.67;;
62572;SDS011;48626;51.678;5.806;2023-06-14T09:33:17;12.50;;;2.72;;
62572;SDS011;48626;51.678;5.806;2023-06-14T09:35:45;6.45;;;2.63;;
62572;SDS011;48626;51.678;5.806;2023-06-14T09:38:11;14.30;;;3.15;;
62572;SDS011;48626;51.678;5.806;2023-06-14T09:40:37;4.55;;;2.20;;
62572;SDS011;48626;51.678;5.806;2023-06-14T09:43:06;13.77;;;3.53;;
62572;SDS011;48626;51.678;5.806;2023-06-14T09:45:35;3.80;;;2.50;;
62572;SDS011;48626;51.678;5.806;2023-06-14T09:48:04;5.05;;;2.47;;
62572;SDS011;48626;51.678;5.806;2023-06-14T09:50:31;5.97;;;2.78;;
62572;SDS011;48626;51.678;5.806;2023-06-14T09:52:58;9.10;;;2.42;;
62572;SDS011;48626;51.678;5.806;2023-06-14T09:55:33;6.40;;;2.60;;
62572;SDS011;48626;51.678;5.806;2023-06-14T09:58:04;7.03;;;2.85;;
62572;SDS011;48626;51.678;5.806;2023-06-14T10:00:31;3.83;;;2.38;;
62572;SDS011;48626;51.678;5.806;2023-06-14T10:03:00;8.80;;;2.70;;
62572;SDS011;48626;51.678;5.806;2023-06-14T10:05:31;29.05;;;4.18;;
62572;SDS011;48626;51.678;5.806;2023-06-14T10:08:02;16.90;;;3.58;;
62572;SDS011;48626;51.678;5.806;2023-06-14T10:10:33;5.10;;;2.60;;
62572;SDS011;48626;51.678;5.806;2023-06-14T10:12:59;4.63;;;2.55;;
62572;SDS011;48626;51.678;5.806;2023-06-14T10:15:38;6.47;;;2.90;;
62572;SDS011;48626;51.678;5.806;2023-06-14T10:18:49;4.80;;;2.40;;
62572;SDS011;48626;51.678;5.806;2023-06-14T10:23:49;3.28;;;2.30;;
62572;SDS011;48626;51.678;5.806;2023-06-14T10:26:22;5.40;;;2.30;;
62572;SDS011;48626;51.678;5.806;2023-06-14T10:28:56;6.63;;;2.47;;
62572;SDS011;48626;51.678;5.806;2023-06-14T10:31:39;3.22;;;2.17;;
62572;SDS011;48626;51.678;5.806;2023-06-14T10:34:05;2.85;;;2.20;;
62572;SDS011;48626;51.678;5.806;2023-06-14T10:36:31;6.85;;;2.65;;
62572;SDS011;48626;51.678;5.806;2023-06-14T10:41:29;4.90;;;2.58;;
62572;SDS011;48626;51.678;5.806;2023-06-14T10:46:48;5.82;;;1.90;;
62572;SDS011;48626;51.678;5.806;2023-06-14T10:49:17;7.32;;;2.78;;
62572;SDS011;48626;51.678;5.806;2023-06-14T10:51:44;8.00;;;2.33;;
62572;SDS011;48626;51.678;5.806;2023-06-14T10:54:22;3.53;;;2.23;;
62572;SDS011;48626;51.678;5.806;2023-06-14T10:56:49;7.55;;;2.47;;
62572;SDS011;48626;51.678;5.806;2023-06-14T10:59:19;5.18;;;2.45;;
62572;SDS011;48626;51.678;5.806;2023-06-14T11:04:52;5.05;;;2.30;;
62572;SDS011;48626;51.678;5.806;2023-06-14T11:12:25;7.00;;;2.50;;
62572;SDS011;48626;51.678;5.806;2023-06-14T11:14:53;5.45;;;2.63;;
62572;SDS011;48626;51.678;5.806;2023-06-14T11:17:18;13.55;;;3.08;;
62572;SDS011;48626;51.678;5.806;2023-06-14T11:19:45;8.15;;;2.55;;
62572;SDS011;48626;51.678;5.806;2023-06-14T11:22:10;4.82;;;2.45;;
62572;SDS011;48626;51.678;5.806;2023-06-14T11:24:37;7.32;;;3.17;;
62572;SDS011;48626;51.678;5.806;2023-06-14T11:27:03;12.07;;;3.22;;
62572;SDS011;48626;51.678;5.806;2023-06-14T11:29:28;6.80;;;2.67;;
62572;SDS011;48626;51.678;5.806;2023-06-14T11:31:55;15.35;;;3.60;;
62572;SDS011;48626;51.678;5.806;2023-06-14T11:34:21;14.85;;;3.63;;
62572;SDS011;48626;51.678;5.806;2023-06-14T11:36:47;19.80;;;3.80;;
62572;SDS011;48626;51.678;5.806;2023-06-14T11:39:12;6.82;;;2.50;;
62572;SDS011;48626;51.678;5.806;2023-06-14T11:41:42;13.85;;;2.80;;
62572;SDS011;48626;51.678;5.806;2023-06-14T11:44:09;25.17;;;3.90;;
62572;SDS011;48626;51.678;5.806;2023-06-14T11:46:36;4.25;;;2.30;;
62572;SDS011;48626;51.678;5.806;2023-06-14T11:49:03;3.40;;;2.30;;
62572;SDS011;48626;51.678;5.806;2023-06-14T11:51:33;12.25;;;2.70;;
62572;SDS011;48626;51.678;5.806;2023-06-14T11:54:00;4.03;;;2.42;;
62572;SDS011;48626;51.678;5.806;2023-06-14T11:56:28;3.83;;;2.28;;
62572;SDS011;48626;51.678;5.806;2023-06-14T11:58:55;3.65;;;2.20;;
62572;SDS011;48626;51.678;5.806;2023-06-14T12:01:22;11.23;;;2.95;;
62572;SDS011;48626;51.678;5.806;2023-06-14T12:03:52;11.73;;;2.40;;
62572;SDS011;48626;51.678;5.806;2023-06-14T12:06:27;22.83;;;4.25;;
62572;SDS011;48626;51.678;5.806;2023-06-14T12:08:57;13.18;;;2.20;;
62572;SDS011;48626;51.678;5.806;2023-06-14T12:11:22;14.23;;;3.40;;
62572;SDS011;48626;51.678;5.806;2023-06-14T12:13:48;7.72;;;2.42;;
62572;SDS011;48626;51.678;5.806;2023-06-14T12:16:14;6.45;;;2.50;;
62572;SDS011;48626;51.678;5.806;2023-06-14T12:18:40;21.15;;;4.15;;
62572;SDS011;48626;51.678;5.806;2023-06-14T12:21:08;9.93;;;2.60;;
62572;SDS011;48626;51.678;5.806;2023-06-14T12:23:38;7.00;;;2.60;;
62572;SDS011;48626;51.678;5.806;2023-06-14T12:26:04;12.30;;;3.00;;
62572;SDS011;48626;51.678;5.806;2023-06-14T12:28:31;9.30;;;2.45;;
62572;SDS011;48626;51.678;5.806;2023-06-14T12:30:57;18.17;;;3.90;;
62572;SDS011;48626;51.678;5.806;2023-06-14T12:33:24;18.85;;;3.50;;
62572;SDS011;48626;51.678;5.806;2023-06-14T12:35:50;17.08;;;3.33;;
62572;SDS011;48626;51.678;5.806;2023-06-14T12:38:16;14.93;;;3.72;;
62572;SDS011;48626;51.678;5.806;2023-06-14T12:40:42;4.20;;;2.40;;
62572;SDS011;48626;51.678;5.806;2023-06-14T12:43:08;7.28;;;2.40;;
62572;SDS011;48626;51.678;5.806;2023-06-14T12:45:33;5.80;;;2.42;;
62572;SDS011;48626;51.678;5.806;2023-06-14T12:47:59;6.93;;;2.75;;
62572;SDS011;48626;51.678;5.806;2023-06-14T12:50:25;12.75;;;2.90;;
62572;SDS011;48626;51.678;5.806;2023-06-14T12:52:51;20.80;;;3.67;;
62572;SDS011;48626;51.678;5.806;2023-06-14T12:55:16;33.97;;;4.20;;
62572;SDS011;48626;51.678;5.806;2023-06-14T12:57:43;5.40;;;2.35;;
62572;SDS011;48626;51.678;5.806;2023-06-14T13:00:09;3.70;;;2.33;;
62572;SDS011;48626;51.678;5.806;2023-06-14T13:02:35;9.00;;;2.28;;
62572;SDS011;48626;51.678;5.806;2023-06-14T13:05:01;6.97;;;2.40;;
62572;SDS011;48626;51.678;5.806;2023-06-14T13:07:28;6.07;;;2.55;;
62572;SDS011;48626;51.678;5.806;2023-06-14T13:09:54;4.15;;;2.10;;
62572;SDS011;48626;51.678;5.806;2023-06-14T13:12:20;5.38;;;2.30;;
62572;SDS011;48626;51.678;5.806;2023-06-14T13:14:45;5.07;;;2.33;;
62572;SDS011;48626;51.678;5.806;2023-06-14T13:17:11;11.15;;;3.35;;
62572;SDS011;48626;51.678;5.806;2023-06-14T13:19:37;3.88;;;2.25;;
62572;SDS011;48626;51.678;5.806;2023-06-14T13:22:02;5.38;;;2.30;;
62572;SDS011;48626;51.678;5.806;2023-06-14T13:24:29;2.60;;;2.03;;
62572;SDS011;48626;51.678;5.806;2023-06-14T13:26:55;7.13;;;2.20;;
62572;SDS011;48626;51.678;5.806;2023-06-14T13:29:21;7.60;;;2.30;;
62572;SDS011;48626;51.678;5.806;2023-06-14T13:31:47;10.07;;;2.10;;
62572;SDS011;48626;51.678;5.806;2023-06-14T13:34:13;5.78;;;2.00;;
62572;SDS011;48626;51.678;5.806;2023-06-14T13:36:39;4.00;;;2.10;;
62572;SDS011;48626;51.678;5.806;2023-06-14T13:39:04;4.18;;;2.05;;
62572;SDS011;48626;51.678;5.806;2023-06-14T13:41:31;4.38;;;2.08;;
62572;SDS011;48626;51.678;5.806;2023-06-14T13:43:59;4.43;;;1.83;;
62572;SDS011;48626;51.678;5.806;2023-06-14T13:46:25;5.13;;;2.08;;
62572;SDS011;48626;51.678;5.806;2023-06-14T13:48:53;4.55;;;1.90;;
62572;SDS011;48626;51.678;5.806;2023-06-14T13:51:22;4.68;;;2.00;;
62572;SDS011;48626;51.678;5.806;2023-06-14T13:53:52;4.60;;;2.08;;
62572;SDS011;48626;51.678;5.806;2023-06-14T13:56:18;8.63;;;2.17;;
62572;SDS011;48626;51.678;5.806;2023-06-14T14:01:44;4.05;;;2.72;;
62572;SDS011;48626;51.678;5.806;2023-06-14T14:04:09;3.72;;;2.50;;
62572;SDS011;48626;51.678;5.806;2023-06-14T14:06:39;3.80;;;1.98;;
62572;SDS011;48626;51.678;5.806;2023-06-14T14:09:05;2.90;;;1.98;;
62572;SDS011;48626;51.678;5.806;2023-06-14T14:11:33;3.92;;;2.20;;
62572;SDS011;48626;51.678;5.806;2023-06-14T14:14:04;5.30;;;2.42;;
62572;SDS011;48626;51.678;5.806;2023-06-14T14:16:30;4.82;;;2.20;;
62572;SDS011;48626;51.678;5.806;2023-06-14T14:19:02;6.97;;;2.53;;
62572;SDS011;48626;51.678;5.806;2023-06-14T14:21:33;8.55;;;2.30;;
62572;SDS011;48626;51.678;5.806;2023-06-14T14:23:59;4.35;;;2.08;;
62572;SDS011;48626;51.678;5.806;2023-06-14T14:26:27;2.75;;;2.00;;
62572;SDS011;48626;51.678;5.806;2023-06-14T14:28:59;3.60;;;2.30;;
62572;SDS011;48626;51.678;5.806;2023-06-14T14:31:43;6.25;;;2.35;;
62572;SDS011;48626;51.678;5.806;2023-06-14T14:34:21;9.10;;;2.88;;
62572;SDS011;48626;51.678;5.806;2023-06-14T14:36:47;11.63;;;9.15;;
62572;SDS011;48626;51.678;5.806;2023-06-14T14:39:13;5.88;;;2.50;;
62572;SDS011;48626;51.678;5.806;2023-06-14T14:41:42;12.15;;;2.50;;
62572;SDS011;48626;51.678;5.806;2023-06-14T14:44:08;7.15;;;2.13;;
62572;SDS011;48626;51.678;5.806;2023-06-14T14:46:41;4.72;;;2.30;;
62572;SDS011;48626;51.678;5.806;2023-06-14T14:49:09;4.43;;;3.00;;
62572;SDS011;48626;51.678;5.806;2023-06-14T14:52:00;8.52;;;2.20;;
62572;SDS011;48626;51.678;5.806;2023-06-14T14:54:35;4.28;;;2.50;;
62572;SDS011;48626;51.678;5.806;2023-06-14T14:57:13;3.58;;;2.22;;
62572;SDS011;48626;51.678;5.806;2023-06-14T14:59:42;5.25;;;1.98;;
62572;SDS011;48626;51.678;5.806;2023-06-14T15:02:10;2.92;;;2.08;;
62572;SDS011;48626;51.678;5.806;2023-06-14T15:04:51;7.05;;;2.25;;
62572;SDS011;48626;51.678;5.806;2023-06-14T15:07:26;8.90;;;2.47;;
62572;SDS011;48626;51.678;5.806;2023-06-14T15:09:56;5.38;;;2.00;;
62572;SDS011;48626;51.678;5.806;2023-06-14T15:12:27;2.97;;;2.20;;
62572;SDS011;48626;51.678;5.806;2023-06-14T15:14:55;5.93;;;2.30;;